sensor_id;sensor_type;location;lat;lon;timestamp;temperature;humidity
73322;DHT22;61549;37.044;22.128;2022-07-22T00:02:09;27.50;40.60
73322;DHT22;61549;37.044;22.128;2022-07-22T00:04:35;27.40;40.80
73322;DHT22;61549;37.044;22.128;2022-07-22T00:07:01;27.30;40.70
73322;DHT22;61549;37.044;22.128;2022-07-22T00:09:27;27.30;40.70
73322;DHT22;61549;37.044;22.128;2022-07-22T00:11:53;27.30;40.30
73322;DHT22;61549;37.044;22.128;2022-07-22T00:14:19;27.30;40.40
73322;DHT22;61549;37.044;22.128;2022-07-22T00:16:44;27.30;39.90
73322;DHT22;61549;37.044;22.128;2022-07-22T00:19:10;27.20;39.10
73322;DHT22;61549;37.044;22.128;2022-07-22T00:21:36;27.20;38.40
73322;DHT22;61549;37.044;22.128;2022-07-22T00:24:03;27.20;38.50
73322;DHT22;61549;37.044;22.128;2022-07-22T00:26:29;27.20;38.10
73322;DHT22;61549;37.044;22.128;2022-07-22T00:28:55;27.30;37.50
73322;DHT22;61549;37.044;22.128;2022-07-22T00:31:21;27.20;37.20
73322;DHT22;61549;37.044;22.128;2022-07-22T00:33:46;27.30;37.10
73322;DHT22;61549;37.044;22.128;2022-07-22T00:36:12;27.30;37.90
73322;DHT22;61549;37.044;22.128;2022-07-22T00:38:39;27.30;37.40
73322;DHT22;61549;37.044;22.128;2022-07-22T00:41:05;27.30;36.70
73322;DHT22;61549;37.044;22.128;2022-07-22T00:44:00;27.30;37.20
73322;DHT22;61549;37.044;22.128;2022-07-22T00:46:27;27.30;36.60
73322;DHT22;61549;37.044;22.128;2022-07-22T00:48:53;27.30;36.80
73322;DHT22;61549;37.044;22.128;2022-07-22T00:51:19;27.30;37.50
73322;DHT22;61549;37.044;22.128;2022-07-22T00:53:47;27.30;37.20
73322;DHT22;61549;37.044;22.128;2022-07-22T00:56:14;27.30;37.30
73322;DHT22;61549;37.044;22.128;2022-07-22T00:58:41;27.20;37.00
73322;DHT22;61549;37.044;22.128;2022-07-22T01:01:07;27.20;36.10
73322;DHT22;61549;37.044;22.128;2022-07-22T01:03:33;27.20;36.30
73322;DHT22;61549;37.044;22.128;2022-07-22T01:05:59;27.20;36.30
73322;DHT22;61549;37.044;22.128;2022-07-22T01:08:25;27.20;37.10
73322;DHT22;61549;37.044;22.128;2022-07-22T01:10:51;27.00;36.60
73322;DHT22;61549;37.044;22.128;2022-07-22T01:13:17;27.00;37.70
73322;DHT22;61549;37.044;22.128;2022-07-22T01:15:43;27.00;37.40
73322;DHT22;61549;37.044;22.128;2022-07-22T01:18:09;27.00;37.30
73322;DHT22;61549;37.044;22.128;2022-07-22T01:20:35;26.90;37.20
73322;DHT22;61549;37.044;22.128;2022-07-22T01:23:01;26.80;37.40
73322;DHT22;61549;37.044;22.128;2022-07-22T01:25:27;26.80;37.80
73322;DHT22;61549;37.044;22.128;2022-07-22T01:27:53;26.80;36.90
73322;DHT22;61549;37.044;22.128;2022-07-22T01:30:19;26.70;37.00
73322;DHT22;61549;37.044;22.128;2022-07-22T01:32:45;26.80;38.00
73322;DHT22;61549;37.044;22.128;2022-07-22T01:35:11;26.70;38.10
73322;DHT22;61549;37.044;22.128;2022-07-22T01:37:37;26.70;38.80
73322;DHT22;61549;37.044;22.128;2022-07-22T01:40:04;26.60;39.20
73322;DHT22;61549;37.044;22.128;2022-07-22T01:42:30;26.60;38.90
73322;DHT22;61549;37.044;22.128;2022-07-22T01:44:55;26.60;39.00
73322;DHT22;61549;37.044;22.128;2022-07-22T01:47:21;26.60;39.40
73322;DHT22;61549;37.044;22.128;2022-07-22T01:49:47;26.50;39.90
73322;DHT22;61549;37.044;22.128;2022-07-22T01:52:13;26.40;40.00
73322;DHT22;61549;37.044;22.128;2022-07-22T01:54:39;26.40;40.30
73322;DHT22;61549;37.044;22.128;2022-07-22T01:57:05;26.40;40.40
73322;DHT22;61549;37.044;22.128;2022-07-22T01:59:31;26.40;40.40
73322;DHT22;61549;37.044;22.128;2022-07-22T02:01:56;26.30;40.40
73322;DHT22;61549;37.044;22.128;2022-07-22T02:04:22;26.20;40.90
73322;DHT22;61549;37.044;22.128;2022-07-22T02:06:48;26.20;40.40
73322;DHT22;61549;37.044;22.128;2022-07-22T02:09:14;26.20;40.60
73322;DHT22;61549;37.044;22.128;2022-07-22T02:11:40;26.20;40.80
73322;DHT22;61549;37.044;22.128;2022-07-22T02:14:06;26.10;41.10
73322;DHT22;61549;37.044;22.128;2022-07-22T02:16:32;26.10;41.20
73322;DHT22;61549;37.044;22.128;2022-07-22T02:18:58;26.00;40.70
73322;DHT22;61549;37.044;22.128;2022-07-22T02:21:23;26.10;41.30
73322;DHT22;61549;37.044;22.128;2022-07-22T02:23:49;26.10;41.40
73322;DHT22;61549;37.044;22.128;2022-07-22T02:26:15;26.00;41.00
73322;DHT22;61549;37.044;22.128;2022-07-22T02:28:41;26.00;41.30
73322;DHT22;61549;37.044;22.128;2022-07-22T02:31:10;26.00;41.40
73322;DHT22;61549;37.044;22.128;2022-07-22T02:33:35;26.00;41.90
73322;DHT22;61549;37.044;22.128;2022-07-22T02:36:02;26.00;40.80
73322;DHT22;61549;37.044;22.128;2022-07-22T02:38:28;26.00;40.10
73322;DHT22;61549;37.044;22.128;2022-07-22T02:40:53;26.00;40.80
73322;DHT22;61549;37.044;22.128;2022-07-22T02:43:19;26.00;41.00
73322;DHT22;61549;37.044;22.128;2022-07-22T02:45:45;26.10;40.90
73322;DHT22;61549;37.044;22.128;2022-07-22T02:48:11;26.20;40.10
73322;DHT22;61549;37.044;22.128;2022-07-22T02:50:37;26.20;39.70
73322;DHT22;61549;37.044;22.128;2022-07-22T02:53:04;26.20;40.00
73322;DHT22;61549;37.044;22.128;2022-07-22T02:55:30;26.20;40.30
73322;DHT22;61549;37.044;22.128;2022-07-22T02:57:56;26.20;39.80
73322;DHT22;61549;37.044;22.128;2022-07-22T03:00:22;26.20;39.50
73322;DHT22;61549;37.044;22.128;2022-07-22T03:02:47;26.20;39.70
73322;DHT22;61549;37.044;22.128;2022-07-22T03:05:13;26.40;38.70
73322;DHT22;61549;37.044;22.128;2022-07-22T03:07:39;26.40;39.30
73322;DHT22;61549;37.044;22.128;2022-07-22T03:10:05;26.50;39.30
73322;DHT22;61549;37.044;22.128;2022-07-22T03:12:31;26.60;38.70
73322;DHT22;61549;37.044;22.128;2022-07-22T03:14:57;26.60;39.20
73322;DHT22;61549;37.044;22.128;2022-07-22T03:17:23;26.60;39.40
73322;DHT22;61549;37.044;22.128;2022-07-22T03:19:49;26.50;39.20
73322;DHT22;61549;37.044;22.128;2022-07-22T03:22:17;26.40;38.80
73322;DHT22;61549;37.044;22.128;2022-07-22T03:24:43;26.40;39.60
73322;DHT22;61549;37.044;22.128;2022-07-22T03:27:09;26.50;39.70
73322;DHT22;61549;37.044;22.128;2022-07-22T03:29:35;26.40;39.70
73322;DHT22;61549;37.044;22.128;2022-07-22T03:32:01;26.40;39.30
73322;DHT22;61549;37.044;22.128;2022-07-22T03:34:26;26.40;39.30
73322;DHT22;61549;37.044;22.128;2022-07-22T03:36:52;26.40;40.00
73322;DHT22;61549;37.044;22.128;2022-07-22T03:39:18;26.40;40.70
73322;DHT22;61549;37.044;22.128;2022-07-22T03:41:44;26.40;41.20
73322;DHT22;61549;37.044;22.128;2022-07-22T03:44:10;26.40;41.80
73322;DHT22;61549;37.044;22.128;2022-07-22T03:46:35;26.40;42.10
73322;DHT22;61549;37.044;22.128;2022-07-22T03:49:01;26.40;42.20
73322;DHT22;61549;37.044;22.128;2022-07-22T03:51:27;26.40;41.60
73322;DHT22;61549;37.044;22.128;2022-07-22T03:53:53;26.30;42.40
73322;DHT22;61549;37.044;22.128;2022-07-22T03:56:19;26.30;42.80
73322;DHT22;61549;37.044;22.128;2022-07-22T03:58:45;26.30;43.00
73322;DHT22;61549;37.044;22.128;2022-07-22T04:01:11;26.30;43.60
73322;DHT22;61549;37.044;22.128;2022-07-22T04:03:37;26.20;44.30
73322;DHT22;61549;37.044;22.128;2022-07-22T04:06:03;26.20;45.90
73322;DHT22;61549;37.044;22.128;2022-07-22T04:08:28;26.20;46.20
73322;DHT22;61549;37.044;22.128;2022-07-22T04:10:54;26.20;46.90
73322;DHT22;61549;37.044;22.128;2022-07-22T04:13:20;26.20;47.90
73322;DHT22;61549;37.044;22.128;2022-07-22T04:15:46;26.20;48.40
73322;DHT22;61549;37.044;22.128;2022-07-22T04:18:12;26.20;48.70
73322;DHT22;61549;37.044;22.128;2022-07-22T04:20:37;26.20;49.80
73322;DHT22;61549;37.044;22.128;2022-07-22T04:23:03;26.20;49.50
73322;DHT22;61549;37.044;22.128;2022-07-22T04:25:29;26.20;49.90
73322;DHT22;61549;37.044;22.128;2022-07-22T04:27:55;26.20;50.10
73322;DHT22;61549;37.044;22.128;2022-07-22T04:30:22;26.30;50.70
73322;DHT22;61549;37.044;22.128;2022-07-22T04:32:47;26.30;51.00
73322;DHT22;61549;37.044;22.128;2022-07-22T04:35:13;26.40;51.50
73322;DHT22;61549;37.044;22.128;2022-07-22T04:37:39;26.30;51.50
73322;DHT22;61549;37.044;22.128;2022-07-22T04:40:06;26.30;52.20
73322;DHT22;61549;37.044;22.128;2022-07-22T04:42:32;26.30;52.50
73322;DHT22;61549;37.044;22.128;2022-07-22T04:44:57;26.30;52.60
73322;DHT22;61549;37.044;22.128;2022-07-22T04:47:23;26.30;53.50
73322;DHT22;61549;37.044;22.128;2022-07-22T04:49:49;26.40;53.60
73322;DHT22;61549;37.044;22.128;2022-07-22T04:52:16;26.50;54.10
73322;DHT22;61549;37.044;22.128;2022-07-22T04:54:42;26.50;54.20
73322;DHT22;61549;37.044;22.128;2022-07-22T04:57:08;26.60;54.60
73322;DHT22;61549;37.044;22.128;2022-07-22T04:59:33;26.70;54.70
73322;DHT22;61549;37.044;22.128;2022-07-22T05:01:59;26.70;53.80
73322;DHT22;61549;37.044;22.128;2022-07-22T05:04:25;26.80;54.60
73322;DHT22;61549;37.044;22.128;2022-07-22T05:06:51;26.90;54.80
73322;DHT22;61549;37.044;22.128;2022-07-22T05:09:17;27.00;56.10
73322;DHT22;61549;37.044;22.128;2022-07-22T05:11:43;27.00;55.20
73322;DHT22;61549;37.044;22.128;2022-07-22T05:14:09;27.10;53.80
73322;DHT22;61549;37.044;22.128;2022-07-22T05:16:37;27.20;52.80
73322;DHT22;61549;37.044;22.128;2022-07-22T05:19:04;27.30;53.80
73322;DHT22;61549;37.044;22.128;2022-07-22T05:21:31;27.30;51.00
73322;DHT22;61549;37.044;22.128;2022-07-22T05:23:57;27.40;49.60
73322;DHT22;61549;37.044;22.128;2022-07-22T05:26:23;27.40;49.20
73322;DHT22;61549;37.044;22.128;2022-07-22T05:28:50;27.40;50.90
73322;DHT22;61549;37.044;22.128;2022-07-22T05:31:16;27.50;51.00
73322;DHT22;61549;37.044;22.128;2022-07-22T05:33:42;27.60;51.60
73322;DHT22;61549;37.044;22.128;2022-07-22T05:36:08;27.70;52.00
73322;DHT22;61549;37.044;22.128;2022-07-22T05:38:35;27.80;52.60
73322;DHT22;61549;37.044;22.128;2022-07-22T05:41:02;27.80;52.80
73322;DHT22;61549;37.044;22.128;2022-07-22T05:43:28;27.80;53.10
73322;DHT22;61549;37.044;22.128;2022-07-22T05:45:57;27.90;53.10
73322;DHT22;61549;37.044;22.128;2022-07-22T05:48:22;28.00;52.50
73322;DHT22;61549;37.044;22.128;2022-07-22T05:50:48;28.10;51.90
73322;DHT22;61549;37.044;22.128;2022-07-22T05:53:14;28.20;50.60
73322;DHT22;61549;37.044;22.128;2022-07-22T05:55:40;28.20;50.40
73322;DHT22;61549;37.044;22.128;2022-07-22T05:58:09;28.30;49.20
73322;DHT22;61549;37.044;22.128;2022-07-22T06:00:35;28.30;47.10
73322;DHT22;61549;37.044;22.128;2022-07-22T06:03:01;28.40;46.70
73322;DHT22;61549;37.044;22.128;2022-07-22T06:05:29;28.50;46.90
73322;DHT22;61549;37.044;22.128;2022-07-22T06:07:55;28.50;47.50
73322;DHT22;61549;37.044;22.128;2022-07-22T06:10:21;28.70;46.60
73322;DHT22;61549;37.044;22.128;2022-07-22T06:12:47;28.80;45.70
73322;DHT22;61549;37.044;22.128;2022-07-22T06:15:13;29.00;45.90
73322;DHT22;61549;37.044;22.128;2022-07-22T06:17:39;29.20;45.50
73322;DHT22;61549;37.044;22.128;2022-07-22T06:20:08;29.30;44.10
73322;DHT22;61549;37.044;22.128;2022-07-22T06:22:34;29.40;42.80
73322;DHT22;61549;37.044;22.128;2022-07-22T06:25:00;29.70;43.10
73322;DHT22;61549;37.044;22.128;2022-07-22T06:27:25;29.90;42.20
73322;DHT22;61549;37.044;22.128;2022-07-22T06:29:51;30.00;42.20
73322;DHT22;61549;37.044;22.128;2022-07-22T06:32:17;30.10;41.40
73322;DHT22;61549;37.044;22.128;2022-07-22T06:34:43;30.20;41.00
73322;DHT22;61549;37.044;22.128;2022-07-22T06:37:09;30.30;41.30
73322;DHT22;61549;37.044;22.128;2022-07-22T06:39:35;30.50;40.00
73322;DHT22;61549;37.044;22.128;2022-07-22T06:42:01;30.70;41.30
73322;DHT22;61549;37.044;22.128;2022-07-22T06:44:27;30.90;41.70
73322;DHT22;61549;37.044;22.128;2022-07-22T06:46:53;31.00;40.10
73322;DHT22;61549;37.044;22.128;2022-07-22T06:49:22;31.20;39.90
73322;DHT22;61549;37.044;22.128;2022-07-22T06:51:51;31.30;39.30
73322;DHT22;61549;37.044;22.128;2022-07-22T06:54:17;31.40;37.40
73322;DHT22;61549;37.044;22.128;2022-07-22T06:56:49;31.50;34.60
73322;DHT22;61549;37.044;22.128;2022-07-22T06:59:14;31.60;34.60
73322;DHT22;61549;37.044;22.128;2022-07-22T07:01:40;31.60;34.30
73322;DHT22;61549;37.044;22.128;2022-07-22T07:04:06;31.70;34.60
73322;DHT22;61549;37.044;22.128;2022-07-22T07:06:32;31.80;35.80
73322;DHT22;61549;37.044;22.128;2022-07-22T07:08:58;31.90;34.80
73322;DHT22;61549;37.044;22.128;2022-07-22T07:11:24;32.10;36.40
73322;DHT22;61549;37.044;22.128;2022-07-22T07:13:50;32.20;35.00
73322;DHT22;61549;37.044;22.128;2022-07-22T07:16:15;32.20;34.30
73322;DHT22;61549;37.044;22.128;2022-07-22T07:18:41;32.30;33.80
73322;DHT22;61549;37.044;22.128;2022-07-22T07:21:07;32.30;31.40
73322;DHT22;61549;37.044;22.128;2022-07-22T07:23:33;32.20;32.60
73322;DHT22;61549;37.044;22.128;2022-07-22T07:25:59;32.30;33.50
73322;DHT22;61549;37.044;22.128;2022-07-22T07:28:25;32.40;32.60
73322;DHT22;61549;37.044;22.128;2022-07-22T07:30:51;32.50;30.90
73322;DHT22;61549;37.044;22.128;2022-07-22T07:33:17;32.60;31.60
73322;DHT22;61549;37.044;22.128;2022-07-22T07:35:43;32.50;30.90
73322;DHT22;61549;37.044;22.128;2022-07-22T07:38:09;32.60;31.90
73322;DHT22;61549;37.044;22.128;2022-07-22T07:40:35;32.60;32.40
73322;DHT22;61549;37.044;22.128;2022-07-22T07:43:01;32.60;30.60
73322;DHT22;61549;37.044;22.128;2022-07-22T07:45:28;32.60;30.20
73322;DHT22;61549;37.044;22.128;2022-07-22T07:47:54;32.70;30.70
73322;DHT22;61549;37.044;22.128;2022-07-22T07:50:20;32.70;32.30
73322;DHT22;61549;37.044;22.128;2022-07-22T07:52:46;32.60;31.70
73322;DHT22;61549;37.044;22.128;2022-07-22T07:55:13;32.80;32.10
73322;DHT22;61549;37.044;22.128;2022-07-22T07:57:40;32.90;31.50
73322;DHT22;61549;37.044;22.128;2022-07-22T08:00:08;32.90;31.30
73322;DHT22;61549;37.044;22.128;2022-07-22T08:02:35;32.80;30.60
73322;DHT22;61549;37.044;22.128;2022-07-22T08:05:04;32.90;31.40
73322;DHT22;61549;37.044;22.128;2022-07-22T08:07:31;32.80;31.20
73322;DHT22;61549;37.044;22.128;2022-07-22T08:09:56;33.00;31.80
73322;DHT22;61549;37.044;22.128;2022-07-22T08:12:23;33.10;32.90
73322;DHT22;61549;37.044;22.128;2022-07-22T08:14:49;33.20;31.10
73322;DHT22;61549;37.044;22.128;2022-07-22T08:17:14;33.20;30.60
73322;DHT22;61549;37.044;22.128;2022-07-22T08:19:43;33.30;30.60
73322;DHT22;61549;37.044;22.128;2022-07-22T08:22:09;33.30;31.00
73322;DHT22;61549;37.044;22.128;2022-07-22T08:24:35;33.40;31.80
73322;DHT22;61549;37.044;22.128;2022-07-22T08:27:01;33.40;31.00
73322;DHT22;61549;37.044;22.128;2022-07-22T08:29:27;33.40;30.90
73322;DHT22;61549;37.044;22.128;2022-07-22T08:31:53;33.50;30.60
73322;DHT22;61549;37.044;22.128;2022-07-22T08:34:19;33.50;31.70
73322;DHT22;61549;37.044;22.128;2022-07-22T08:36:45;33.50;31.30
73322;DHT22;61549;37.044;22.128;2022-07-22T08:39:11;33.50;31.20
73322;DHT22;61549;37.044;22.128;2022-07-22T08:41:38;33.50;30.90
73322;DHT22;61549;37.044;22.128;2022-07-22T08:44:09;33.70;31.10
73322;DHT22;61549;37.044;22.128;2022-07-22T08:46:36;33.80;32.00
73322;DHT22;61549;37.044;22.128;2022-07-22T08:49:03;33.80;32.60
73322;DHT22;61549;37.044;22.128;2022-07-22T08:51:32;33.80;30.50
73322;DHT22;61549;37.044;22.128;2022-07-22T08:53:58;33.90;30.00
73322;DHT22;61549;37.044;22.128;2022-07-22T08:56:24;34.00;29.90
73322;DHT22;61549;37.044;22.128;2022-07-22T08:58:50;34.10;30.50
73322;DHT22;61549;37.044;22.128;2022-07-22T09:01:17;34.00;29.10
73322;DHT22;61549;37.044;22.128;2022-07-22T09:06:18;34.10;29.60
73322;DHT22;61549;37.044;22.128;2022-07-22T09:09:05;34.30;30.00
73322;DHT22;61549;37.044;22.128;2022-07-22T09:11:35;34.20;28.70
73322;DHT22;61549;37.044;22.128;2022-07-22T09:14:01;34.20;30.60
73322;DHT22;61549;37.044;22.128;2022-07-22T09:16:44;34.10;29.90
73322;DHT22;61549;37.044;22.128;2022-07-22T09:19:11;34.20;30.70
73322;DHT22;61549;37.044;22.128;2022-07-22T09:21:40;34.20;31.30
73322;DHT22;61549;37.044;22.128;2022-07-22T09:24:06;34.00;30.50
73322;DHT22;61549;37.044;22.128;2022-07-22T09:26:38;34.10;30.70
73322;DHT22;61549;37.044;22.128;2022-07-22T09:29:05;34.20;30.20
73322;DHT22;61549;37.044;22.128;2022-07-22T09:31:36;34.30;30.10
73322;DHT22;61549;37.044;22.128;2022-07-22T09:34:04;34.20;29.20
73322;DHT22;61549;37.044;22.128;2022-07-22T09:36:30;34.20;30.00
73322;DHT22;61549;37.044;22.128;2022-07-22T09:38:57;34.10;29.40
73322;DHT22;61549;37.044;22.128;2022-07-22T09:41:23;34.20;29.70
73322;DHT22;61549;37.044;22.128;2022-07-22T09:43:49;34.20;30.00
73322;DHT22;61549;37.044;22.128;2022-07-22T09:46:34;34.30;30.60
73322;DHT22;61549;37.044;22.128;2022-07-22T09:49:01;34.30;29.10
73322;DHT22;61549;37.044;22.128;2022-07-22T09:51:27;34.40;29.40
73322;DHT22;61549;37.044;22.128;2022-07-22T09:53:53;34.40;28.30
73322;DHT22;61549;37.044;22.128;2022-07-22T09:56:23;34.30;29.30
73322;DHT22;61549;37.044;22.128;2022-07-22T09:58:50;34.40;30.50
73322;DHT22;61549;37.044;22.128;2022-07-22T10:01:20;34.50;31.40
73322;DHT22;61549;37.044;22.128;2022-07-22T10:03:51;34.40;30.80
73322;DHT22;61549;37.044;22.128;2022-07-22T10:06:19;34.50;31.70
73322;DHT22;61549;37.044;22.128;2022-07-22T10:08:46;34.50;31.70
73322;DHT22;61549;37.044;22.128;2022-07-22T10:11:12;34.40;30.50
73322;DHT22;61549;37.044;22.128;2022-07-22T10:13:38;34.40;30.50
73322;DHT22;61549;37.044;22.128;2022-07-22T10:16:08;34.50;30.70
73322;DHT22;61549;37.044;22.128;2022-07-22T10:18:34;34.50;30.90
73322;DHT22;61549;37.044;22.128;2022-07-22T10:21:08;34.50;31.80
73322;DHT22;61549;37.044;22.128;2022-07-22T10:23:35;34.50;32.00
73322;DHT22;61549;37.044;22.128;2022-07-22T10:26:03;34.60;31.30
73322;DHT22;61549;37.044;22.128;2022-07-22T10:28:34;34.40;31.70
73322;DHT22;61549;37.044;22.128;2022-07-22T10:31:22;34.40;34.80
73322;DHT22;61549;37.044;22.128;2022-07-22T10:33:51;34.30;36.60
73322;DHT22;61549;37.044;22.128;2022-07-22T10:36:35;34.30;36.80
73322;DHT22;61549;37.044;22.128;2022-07-22T10:39:05;34.00;38.00
73322;DHT22;61549;37.044;22.128;2022-07-22T10:41:37;34.00;37.40
73322;DHT22;61549;37.044;22.128;2022-07-22T10:44:04;34.00;35.00
73322;DHT22;61549;37.044;22.128;2022-07-22T10:46:53;34.00;34.20
73322;DHT22;61549;37.044;22.128;2022-07-22T10:49:22;33.80;35.50
73322;DHT22;61549;37.044;22.128;2022-07-22T10:57:43;33.30;36.60
73322;DHT22;61549;37.044;22.128;2022-07-22T11:00:09;33.10;36.60
73322;DHT22;61549;37.044;22.128;2022-07-22T11:02:37;33.30;37.50
73322;DHT22;61549;37.044;22.128;2022-07-22T11:05:04;33.40;36.50
73322;DHT22;61549;37.044;22.128;2022-07-22T11:07:30;33.50;35.80
73322;DHT22;61549;37.044;22.128;2022-07-22T11:10:11;33.60;35.30
73322;DHT22;61549;37.044;22.128;2022-07-22T11:12:37;33.90;35.50
73322;DHT22;61549;37.044;22.128;2022-07-22T11:15:04;34.00;33.70
73322;DHT22;61549;37.044;22.128;2022-07-22T11:17:32;34.10;33.00
73322;DHT22;61549;37.044;22.128;2022-07-22T11:20:07;34.10;33.40
73322;DHT22;61549;37.044;22.128;2022-07-22T11:22:33;34.30;33.60
73322;DHT22;61549;37.044;22.128;2022-07-22T11:25:03;34.40;33.30
73322;DHT22;61549;37.044;22.128;2022-07-22T11:27:30;34.50;33.00
73322;DHT22;61549;37.044;22.128;2022-07-22T11:29:57;34.60;33.10
73322;DHT22;61549;37.044;22.128;2022-07-22T11:32:25;34.70;32.00
73322;DHT22;61549;37.044;22.128;2022-07-22T11:34:53;34.70;31.70
73322;DHT22;61549;37.044;22.128;2022-07-22T11:37:21;34.70;31.60
73322;DHT22;61549;37.044;22.128;2022-07-22T11:39:49;34.70;31.30
73322;DHT22;61549;37.044;22.128;2022-07-22T11:42:15;34.90;31.40
73322;DHT22;61549;37.044;22.128;2022-07-22T11:44:41;34.90;31.60
73322;DHT22;61549;37.044;22.128;2022-07-22T11:47:08;34.90;31.60
73322;DHT22;61549;37.044;22.128;2022-07-22T11:49:36;35.10;32.20
73322;DHT22;61549;37.044;22.128;2022-07-22T11:52:05;35.20;32.00
73322;DHT22;61549;37.044;22.128;2022-07-22T11:54:33;35.20;33.40
73322;DHT22;61549;37.044;22.128;2022-07-22T11:56:59;35.30;33.00
73322;DHT22;61549;37.044;22.128;2022-07-22T11:59:29;35.20;33.10
73322;DHT22;61549;37.044;22.128;2022-07-22T12:01:59;35.20;31.70
73322;DHT22;61549;37.044;22.128;2022-07-22T12:04:26;35.20;32.00
73322;DHT22;61549;37.044;22.128;2022-07-22T12:06:58;35.30;31.50
73322;DHT22;61549;37.044;22.128;2022-07-22T12:09:26;35.30;32.10
73322;DHT22;61549;37.044;22.128;2022-07-22T12:11:56;35.30;32.70
73322;DHT22;61549;37.044;22.128;2022-07-22T12:14:30;35.10;32.00
73322;DHT22;61549;37.044;22.128;2022-07-22T12:19:30;35.00;32.80
73322;DHT22;61549;37.044;22.128;2022-07-22T12:22:07;35.10;32.50
73322;DHT22;61549;37.044;22.128;2022-07-22T12:24:41;35.20;32.30
73322;DHT22;61549;37.044;22.128;2022-07-22T12:27:16;35.30;32.20
73322;DHT22;61549;37.044;22.128;2022-07-22T12:29:45;35.30;32.20
73322;DHT22;61549;37.044;22.128;2022-07-22T12:34:56;35.30;31.70
73322;DHT22;61549;37.044;22.128;2022-07-22T12:37:40;35.50;31.20
73322;DHT22;61549;37.044;22.128;2022-07-22T12:40:08;35.50;31.50
73322;DHT22;61549;37.044;22.128;2022-07-22T12:42:40;35.30;31.10
73322;DHT22;61549;37.044;22.128;2022-07-22T12:45:13;35.20;30.60
73322;DHT22;61549;37.044;22.128;2022-07-22T12:52:55;35.20;32.00
73322;DHT22;61549;37.044;22.128;2022-07-22T12:55:21;35.40;31.50
73322;DHT22;61549;37.044;22.128;2022-07-22T12:57:47;35.50;31.90
73322;DHT22;61549;37.044;22.128;2022-07-22T13:00:18;35.40;31.50
73322;DHT22;61549;37.044;22.128;2022-07-22T13:02:45;35.50;30.90
73322;DHT22;61549;37.044;22.128;2022-07-22T13:05:12;35.40;31.00
73322;DHT22;61549;37.044;22.128;2022-07-22T13:07:38;35.40;31.90
73322;DHT22;61549;37.044;22.128;2022-07-22T13:10:05;35.40;31.20
73322;DHT22;61549;37.044;22.128;2022-07-22T13:12:34;35.30;30.70
73322;DHT22;61549;37.044;22.128;2022-07-22T13:15:03;35.40;31.30
73322;DHT22;61549;37.044;22.128;2022-07-22T13:17:29;35.40;30.90
73322;DHT22;61549;37.044;22.128;2022-07-22T13:19:55;35.40;32.30
73322;DHT22;61549;37.044;22.128;2022-07-22T13:22:21;35.40;31.80
73322;DHT22;61549;37.044;22.128;2022-07-22T13:24:48;35.50;32.00
73322;DHT22;61549;37.044;22.128;2022-07-22T13:27:14;35.60;30.40
73322;DHT22;61549;37.044;22.128;2022-07-22T13:29:41;35.70;30.00
73322;DHT22;61549;37.044;22.128;2022-07-22T13:32:07;35.80;31.80
73322;DHT22;61549;37.044;22.128;2022-07-22T13:34:33;36.10;30.90
73322;DHT22;61549;37.044;22.128;2022-07-22T13:37:03;36.10;31.00
73322;DHT22;61549;37.044;22.128;2022-07-22T13:39:29;36.10;29.80
73322;DHT22;61549;37.044;22.128;2022-07-22T13:41:55;36.00;30.00
73322;DHT22;61549;37.044;22.128;2022-07-22T13:44:21;36.00;30.20
73322;DHT22;61549;37.044;22.128;2022-07-22T13:46:48;35.90;30.60
73322;DHT22;61549;37.044;22.128;2022-07-22T13:49:14;35.70;31.30
73322;DHT22;61549;37.044;22.128;2022-07-22T13:51:40;35.60;30.70
73322;DHT22;61549;37.044;22.128;2022-07-22T13:54:06;35.40;31.70
73322;DHT22;61549;37.044;22.128;2022-07-22T13:56:33;35.40;32.40
73322;DHT22;61549;37.044;22.128;2022-07-22T13:59:02;35.50;31.80
73322;DHT22;61549;37.044;22.128;2022-07-22T14:01:28;35.60;31.90
73322;DHT22;61549;37.044;22.128;2022-07-22T14:03:57;35.60;31.80
73322;DHT22;61549;37.044;22.128;2022-07-22T14:06:23;35.50;31.40
73322;DHT22;61549;37.044;22.128;2022-07-22T14:08:49;35.40;30.50
73322;DHT22;61549;37.044;22.128;2022-07-22T14:11:16;35.50;30.90
73322;DHT22;61549;37.044;22.128;2022-07-22T14:13:42;35.60;30.80
73322;DHT22;61549;37.044;22.128;2022-07-22T14:16:08;35.60;30.90
73322;DHT22;61549;37.044;22.128;2022-07-22T14:18:52;35.70;31.20
73322;DHT22;61549;37.044;22.128;2022-07-22T14:21:18;35.80;30.70
73322;DHT22;61549;37.044;22.128;2022-07-22T14:23:44;35.80;30.50
73322;DHT22;61549;37.044;22.128;2022-07-22T14:26:10;35.80;30.00
73322;DHT22;61549;37.044;22.128;2022-07-22T14:28:36;35.80;31.70
73322;DHT22;61549;37.044;22.128;2022-07-22T14:31:02;35.70;30.90
73322;DHT22;61549;37.044;22.128;2022-07-22T14:33:28;35.70;32.60
73322;DHT22;61549;37.044;22.128;2022-07-22T14:35:58;35.50;32.00
73322;DHT22;61549;37.044;22.128;2022-07-22T14:38:24;35.50;31.00
73322;DHT22;61549;37.044;22.128;2022-07-22T14:40:49;35.60;32.20
73322;DHT22;61549;37.044;22.128;2022-07-22T14:43:18;35.70;31.30
73322;DHT22;61549;37.044;22.128;2022-07-22T14:45:44;35.70;31.10
73322;DHT22;61549;37.044;22.128;2022-07-22T14:48:12;35.70;31.00
73322;DHT22;61549;37.044;22.128;2022-07-22T14:50:38;35.60;30.80
73322;DHT22;61549;37.044;22.128;2022-07-22T14:53:04;35.70;30.90
73322;DHT22;61549;37.044;22.128;2022-07-22T14:55:30;35.60;30.30
73322;DHT22;61549;37.044;22.128;2022-07-22T14:57:55;35.40;30.30
73322;DHT22;61549;37.044;22.128;2022-07-22T15:00:21;35.30;30.60
73322;DHT22;61549;37.044;22.128;2022-07-22T15:02:47;35.30;30.80
73322;DHT22;61549;37.044;22.128;2022-07-22T15:05:13;35.40;31.20
73322;DHT22;61549;37.044;22.128;2022-07-22T15:07:39;35.50;30.80
73322;DHT22;61549;37.044;22.128;2022-07-22T15:10:07;35.40;30.70
73322;DHT22;61549;37.044;22.128;2022-07-22T15:12:33;35.40;31.00
73322;DHT22;61549;37.044;22.128;2022-07-22T15:15:00;35.40;31.60
73322;DHT22;61549;37.044;22.128;2022-07-22T15:17:26;35.50;30.80
73322;DHT22;61549;37.044;22.128;2022-07-22T15:19:52;35.60;30.30
73322;DHT22;61549;37.044;22.128;2022-07-22T15:22:18;35.70;30.50
73322;DHT22;61549;37.044;22.128;2022-07-22T15:24:43;35.70;30.50
73322;DHT22;61549;37.044;22.128;2022-07-22T15:27:09;35.60;31.20
73322;DHT22;61549;37.044;22.128;2022-07-22T15:29:35;35.40;31.20
73322;DHT22;61549;37.044;22.128;2022-07-22T15:32:01;35.40;31.50
73322;DHT22;61549;37.044;22.128;2022-07-22T15:34:31;35.30;31.10